Time;durP1;ratioP1;P1;durP2;ratioP2;P2;SDS_P1;SDS_P2;PMS_P1;PMS_P2;Temp;Humidity;BMP_temperature;BMP_pressure;BME280_temperature;BME280_humidity;BME280_pressure;Samples;Min_cycle;Max_cycle;Signal;HPM_P1;HPM_P2
2021/10/16 00:02:18;;;;;;;15.85;5.93;;;6.20;89.30;;;;;;5073134;28;20033;-46
2021/10/16 00:04:44;;;;;;;22.73;6.95;;;6.20;89.10;;;;;;5073096;28;20119;-48
2021/10/16 00:07:09;;;;;;;16.38;7.38;;;6.10;89.10;;;;;;5073349;28;20024;-48
2021/10/16 00:09:35;;;;;;;24.08;7.80;;;6.20;89.30;;;;;;5073175;28;20033;-47
2021/10/16 00:12:01;;;;;;;13.73;6.15;;;6.10;89.10;;;;;;5073399;28;20031;-46
2021/10/16 00:14:26;;;;;;;14.75;5.78;;;6.00;89.00;;;;;;5073407;28;20036;-46
2021/10/16 00:16:52;;;;;;;17.80;6.25;;;6.00;88.90;;;;;;5073161;28;20024;-47
2021/10/16 00:19:18;;;;;;;12.68;5.85;;;5.90;89.00;;;;;;5073035;28;20024;-49
2021/10/16 00:21:43;;;;;;;12.45;5.68;;;5.80;89.10;;;;;;5073265;28;20372;-46
2021/10/16 00:24:09;;;;;;;11.55;5.43;;;5.80;89.20;;;;;;5073141;28;20108;-46
2021/10/16 00:26:35;;;;;;;13.52;6.03;;;5.70;89.40;;;;;;5072938;28;20028;-48
2021/10/16 00:29:01;;;;;;;10.10;5.35;;;5.60;89.70;;;;;;5073129;28;20051;-46
2021/10/16 00:31:27;;;;;;;17.60;5.97;;;5.60;90.10;;;;;;5072962;28;20534;-48
2021/10/16 00:33:53;;;;;;;26.15;5.50;;;5.60;90.30;;;;;;5072962;28;20373;-49
2021/10/16 00:36:18;;;;;;;13.63;6.18;;;5.60;90.30;;;;;;5073002;28;20193;-47
2021/10/16 00:38:44;;;;;;;19.60;6.38;;;5.60;90.40;;;;;;5073098;28;20021;-46
2021/10/16 00:41:12;;;;;;;14.65;5.55;;;5.60;90.50;;;;;;5054746;28;20028;-46
2021/10/16 00:43:38;;;;;;;14.60;5.40;;;5.60;90.50;;;;;;5072827;28;20020;-47
2021/10/16 00:46:04;;;;;;;9.73;5.07;;;5.60;90.40;;;;;;5073039;28;20039;-48
2021/10/16 00:48:30;;;;;;;14.50;5.60;;;5.50;90.50;;;;;;5072788;28;20104;-47
2021/10/16 00:50:55;;;;;;;17.05;6.50;;;5.60;90.40;;;;;;5073036;28;20081;-48
2021/10/16 00:53:22;;;;;;;14.05;5.85;;;5.60;90.30;;;;;;5072981;28;20036;-46
2021/10/16 00:55:50;;;;;;;12.93;6.68;;;5.60;90.20;;;;;;5072569;28;20388;-48
2021/10/16 00:58:16;;;;;;;13.88;6.88;;;5.60;90.20;;;;;;5074238;28;20025;-47
2021/10/16 01:00:42;;;;;;;19.83;7.07;;;5.60;90.10;;;;;;5076526;28;20035;-47
2021/10/16 01:03:08;;;;;;;21.67;7.68;;;5.70;90.00;;;;;;5076278;28;20469;-46
2021/10/16 01:05:34;;;;;;;21.63;7.95;;;5.60;89.90;;;;;;5075989;28;20044;-47
2021/10/16 01:08:03;;;;;;;13.40;7.43;;;5.60;89.90;;;;;;5058252;28;20488;-48
2021/10/16 01:10:29;;;;;;;13.70;4.85;;;5.70;89.70;;;;;;5058146;28;20032;-48
2021/10/16 01:12:57;;;;;;;14.05;5.65;;;5.60;89.50;;;;;;5076267;28;20436;-47
2021/10/16 01:15:24;;;;;;;11.98;5.10;;;5.50;89.40;;;;;;5076327;28;20024;-46
2021/10/16 01:17:51;;;;;;;12.10;5.38;;;5.50;89.40;;;;;;5077068;28;20438;-46
2021/10/16 01:20:18;;;;;;;8.73;4.68;;;5.40;89.50;;;;;;5075817;28;20483;-48
2021/10/16 01:22:45;;;;;;;12.48;4.97;;;5.50;89.70;;;;;;5076178;28;20067;-48
2021/10/16 01:25:22;;;;;;;13.18;5.78;;;5.50;89.90;;;;;;5075763;28;20072;-48
2021/10/16 01:27:49;;;;;;;15.48;7.28;;;5.60;89.90;;;;;;5075867;28;20032;-49
2021/10/16 01:30:18;;;;;;;18.10;7.13;;;5.60;89.90;;;;;;5057673;28;20032;-47
2021/10/16 01:32:44;;;;;;;9.10;4.22;;;5.70;89.90;;;;;;5075622;28;20021;-48
2021/10/16 01:35:11;;;;;;;19.65;5.00;;;5.70;89.80;;;;;;5075810;28;20051;-48
2021/10/16 01:37:42;;;;;;;15.95;5.82;;;5.60;89.80;;;;;;5075877;28;20040;-48
2021/10/16 01:40:09;;;;;;;16.65;5.70;;;5.60;89.70;;;;;;5057741;28;20115;-48
2021/10/16 01:42:36;;;;;;;14.98;6.00;;;5.60;89.80;;;;;;5075554;28;20017;-47
2021/10/16 01:45:02;;;;;;;17.02;5.60;;;5.50;89.80;;;;;;5075590;28;20477;-46
2021/10/16 01:47:28;;;;;;;14.75;5.07;;;5.50;89.70;;;;;;5075524;28;20025;-46
2021/10/16 01:49:57;;;;;;;16.65;7.53;;;5.40;89.80;;;;;;5075790;28;20131;-47
2021/10/16 01:52:22;;;;;;;13.38;5.72;;;5.40;89.80;;;;;;5057649;28;20388;-46
2021/10/16 01:54:48;;;;;;;18.48;5.30;;;5.40;89.80;;;;;;5075709;28;20032;-49
2021/10/16 01:57:14;;;;;;;18.27;8.13;;;5.40;89.80;;;;;;5075493;28;20039;-47
2021/10/16 01:59:39;;;;;;;10.45;5.53;;;5.30;89.80;;;;;;5057375;28;20031;-47
2021/10/16 02:02:05;;;;;;;16.20;6.70;;;5.30;89.80;;;;;;5075423;28;20020;-48
2021/10/16 02:04:32;;;;;;;18.08;5.32;;;5.30;89.80;;;;;;5075168;28;20024;-47
2021/10/16 02:06:57;;;;;;;10.45;5.30;;;5.40;89.70;;;;;;5058599;28;20036;-50
2021/10/16 02:09:24;;;;;;;12.70;5.68;;;5.30;89.60;;;;;;5057688;28;20530;-51
2021/10/16 02:11:50;;;;;;;13.38;5.82;;;5.20;89.80;;;;;;5075646;28;20024;-50
2021/10/16 02:14:15;;;;;;;13.48;6.30;;;5.20;89.80;;;;;;5075495;28;20032;-48
2021/10/16 02:16:41;;;;;;;18.10;7.15;;;5.20;89.80;;;;;;5076649;28;20385;-48
2021/10/16 02:19:06;;;;;;;17.58;5.55;;;5.20;89.90;;;;;;5075240;28;20487;-49
2021/10/16 02:21:32;;;;;;;15.88;5.45;;;5.20;89.80;;;;;;5075169;28;20017;-45
2021/10/16 02:23:58;;;;;;;13.05;5.60;;;5.10;89.80;;;;;;5074967;28;20066;-48
2021/10/16 02:26:24;;;;;;;11.88;5.15;;;5.20;89.90;;;;;;5074926;28;20024;-49
2021/10/16 02:28:50;;;;;;;9.07;4.88;;;5.20;89.70;;;;;;5074729;28;20377;-49
2021/10/16 02:31:15;;;;;;;11.65;4.95;;;5.10;89.60;;;;;;5075025;28;20025;-47
2021/10/16 02:33:41;;;;;;;12.48;5.40;;;5.10;89.80;;;;;;5074712;28;20121;-48
2021/10/16 02:36:07;;;;;;;43.38;8.60;;;5.00;90.00;;;;;;5074861;28;20392;-47
2021/10/16 02:38:32;;;;;;;23.63;6.32;;;5.00;90.20;;;;;;5074637;28;20468;-51
2021/10/16 02:40:58;;;;;;;13.00;4.88;;;5.10;90.30;;;;;;5074752;28;20036;-49
2021/10/16 02:43:24;;;;;;;18.42;5.47;;;5.00;90.30;;;;;;5074666;28;20051;-48
2021/10/16 02:45:50;;;;;;;12.52;5.22;;;5.10;90.40;;;;;;5074451;28;20032;-45
2021/10/16 02:48:15;;;;;;;11.95;6.15;;;5.10;90.40;;;;;;5074355;28;20056;-46
2021/10/16 02:50:41;;;;;;;13.88;6.32;;;5.10;90.30;;;;;;5074653;28;20024;-46
2021/10/16 02:53:06;;;;;;;15.38;6.13;;;5.10;90.20;;;;;;5074817;28;20032;-46
2021/10/16 02:55:32;;;;;;;20.45;7.85;;;5.20;90.20;;;;;;5074410;28;20024;-47
2021/10/16 02:57:58;;;;;;;16.02;5.95;;;5.20;90.00;;;;;;5074074;28;20036;-47
2021/10/16 03:00:25;;;;;;;14.68;5.45;;;5.20;89.90;;;;;;5056308;28;20027;-48
2021/10/16 03:02:51;;;;;;;13.52;6.93;;;5.20;89.80;;;;;;5073956;28;20016;-47
2021/10/16 03:05:17;;;;;;;12.15;6.03;;;5.20;89.70;;;;;;5073839;28;20111;-47
2021/10/16 03:07:43;;;;;;;14.98;7.47;;;5.20;89.80;;;;;;5074206;28;20024;-51
2021/10/16 03:10:08;;;;;;;10.48;6.00;;;5.20;89.60;;;;;;5074079;28;20113;-50
2021/10/16 03:12:34;;;;;;;19.33;7.28;;;5.20;90.00;;;;;;5074223;28;20024;-51
2021/10/16 03:15:00;;;;;;;24.20;7.85;;;5.20;90.10;;;;;;5055859;28;20425;-49
2021/10/16 03:17:25;;;;;;;24.17;8.00;;;5.30;90.40;;;;;;5073768;28;20115;-50
2021/10/16 03:19:51;;;;;;;19.40;7.28;;;5.20;90.50;;;;;;5073798;28;20020;-48
2021/10/16 03:22:17;;;;;;;18.67;8.85;;;5.20;90.90;;;;;;5073604;28;20035;-48
2021/10/16 03:24:43;;;;;;;14.32;7.43;;;5.20;91.00;;;;;;5073942;28;20025;-49
2021/10/16 03:27:09;;;;;;;12.48;5.60;;;5.30;90.90;;;;;;5073729;28;20040;-47
2021/10/16 03:29:35;;;;;;;21.27;6.55;;;5.20;90.70;;;;;;5073561;28;20025;-47
2021/10/16 03:32:01;;;;;;;17.40;7.38;;;5.20;90.70;;;;;;5073560;28;20032;-47
2021/10/16 03:34:27;;;;;;;17.20;6.57;;;5.20;90.70;;;;;;5073456;28;20472;-51
2021/10/16 03:36:54;;;;;;;19.30;6.97;;;5.20;90.70;;;;;;5073554;28;20025;-48
2021/10/16 03:39:19;;;;;;;18.88;6.63;;;5.30;90.90;;;;;;5073674;28;20027;-47
2021/10/16 03:41:45;;;;;;;20.67;8.88;;;5.30;90.90;;;;;;5073395;28;20020;-48
2021/10/16 03:44:11;;;;;;;19.15;6.38;;;5.30;90.80;;;;;;5073193;28;20024;-48
2021/10/16 03:46:36;;;;;;;15.43;6.55;;;5.20;90.60;;;;;;5073205;28;20025;-48
2021/10/16 03:49:02;;;;;;;16.45;5.93;;;5.10;90.60;;;;;;5073507;28;20025;-48
2021/10/16 03:51:28;;;;;;;13.13;6.45;;;5.10;90.60;;;;;;5073301;28;20519;-48
2021/10/16 03:53:53;;;;;;;12.40;5.55;;;5.00;90.50;;;;;;5073233;28;20028;-47
2021/10/16 03:56:19;;;;;;;15.45;5.40;;;5.00;90.40;;;;;;5072985;28;20035;-47
2021/10/16 03:58:44;;;;;;;17.13;6.63;;;4.90;90.40;;;;;;5073268;28;20039;-48
2021/10/16 04:01:10;;;;;;;17.77;5.55;;;4.80;90.50;;;;;;5073328;28;20373;-47
2021/10/16 04:03:37;;;;;;;10.60;5.88;;;4.80;90.50;;;;;;5073446;28;20063;-48
2021/10/16 04:06:02;;;;;;;11.98;6.25;;;4.80;90.50;;;;;;5072730;28;20549;-50
2021/10/16 04:08:28;;;;;;;11.48;5.80;;;4.90;90.60;;;;;;5072570;28;20024;-48
2021/10/16 04:10:54;;;;;;;16.13;6.53;;;4.90;90.90;;;;;;5072659;28;20387;-48
2021/10/16 04:13:20;;;;;;;10.60;6.63;;;4.90;90.90;;;;;;5073117;28;20035;-46
2021/10/16 04:15:45;;;;;;;15.30;7.18;;;5.00;91.00;;;;;;5072786;28;20522;-46
2021/10/16 04:18:11;;;;;;;14.55;5.85;;;5.10;91.20;;;;;;5072662;28;20025;-47
2021/10/16 04:20:37;;;;;;;17.10;7.47;;;5.00;91.10;;;;;;5072742;28;20170;-47
2021/10/16 04:23:03;;;;;;;15.52;5.85;;;5.10;91.10;;;;;;5073025;28;20477;-48
2021/10/16 04:25:28;;;;;;;19.33;7.75;;;5.10;91.00;;;;;;5054620;28;20025;-46
2021/10/16 04:27:54;;;;;;;15.70;6.75;;;5.20;90.90;;;;;;5072748;28;20031;-47
2021/10/16 04:30:20;;;;;;;13.32;7.25;;;5.20;90.70;;;;;;5072974;28;20025;-47
2021/10/16 04:32:46;;;;;;;13.80;5.70;;;5.30;90.60;;;;;;5072193;28;20034;-50
2021/10/16 04:35:13;;;;;;;12.32;5.68;;;5.30;90.40;;;;;;5073007;28;20039;-48
2021/10/16 04:37:39;;;;;;;30.60;8.40;;;5.30;90.40;;;;;;5072879;28;20441;-47
2021/10/16 04:40:39;;;;;;;15.57;6.57;;;5.40;90.20;;;;;;5072696;28;20044;-48
2021/10/16 04:43:01;;;;;;;16.98;6.15;;;5.50;90.10;;;;;;5069313;28;20070;-48
2021/10/16 04:45:27;;;;;;;14.13;5.40;;;5.60;89.70;;;;;;5073046;28;20025;-49
2021/10/16 04:47:53;;;;;;;22.83;7.43;;;5.60;89.40;;;;;;5073306;28;20033;-49
2021/10/16 04:50:18;;;;;;;16.48;6.72;;;5.70;89.30;;;;;;5072573;28;20100;-47
2021/10/16 04:52:44;;;;;;;16.13;7.00;;;5.70;89.10;;;;;;5072478;28;20033;-50
2021/10/16 04:55:10;;;;;;;13.20;5.53;;;5.80;88.90;;;;;;5072682;28;20029;-47
2021/10/16 04:57:35;;;;;;;11.05;4.97;;;5.80;89.00;;;;;;5072531;28;20086;-48
2021/10/16 05:00:01;;;;;;;16.17;6.93;;;5.80;88.70;;;;;;5072512;28;20017;-47
2021/10/16 05:02:27;;;;;;;15.95;6.28;;;5.80;88.30;;;;;;5072458;28;20046;-48
2021/10/16 05:04:53;;;;;;;13.27;6.35;;;5.90;88.40;;;;;;5072478;28;20556;-47
2021/10/16 05:07:20;;;;;;;15.60;6.15;;;5.90;88.60;;;;;;5072628;28;20043;-47
2021/10/16 05:09:45;;;;;;;11.95;6.22;;;5.80;88.70;;;;;;5072615;28;20039;-51
2021/10/16 05:12:11;;;;;;;12.18;6.75;;;5.80;89.00;;;;;;5072299;28;20103;-46
2021/10/16 05:14:37;;;;;;;14.52;7.28;;;5.80;88.50;;;;;;5072287;28;20346;-46
2021/10/16 05:17:03;;;;;;;18.75;8.57;;;5.60;88.10;;;;;;5054245;28;20025;-47
2021/10/16 05:19:30;;;;;;;17.42;6.85;;;5.50;87.90;;;;;;5072141;28;20396;-48
2021/10/16 05:21:56;;;;;;;17.17;6.93;;;5.50;88.20;;;;;;5072522;28;20028;-47
2021/10/16 05:24:21;;;;;;;29.05;9.38;;;5.50;88.50;;;;;;5072473;28;20025;-47
2021/10/16 05:26:47;;;;;;;16.13;7.55;;;5.50;88.60;;;;;;5072408;28;20386;-46
2021/10/16 05:29:12;;;;;;;13.95;5.75;;;5.60;88.80;;;;;;5072029;28;20028;-46
2021/10/16 05:31:38;;;;;;;14.15;6.72;;;5.70;88.70;;;;;;5072086;28;20029;-48
2021/10/16 05:34:04;;;;;;;12.68;5.78;;;5.60;88.50;;;;;;5072157;28;20033;-46
2021/10/16 05:36:36;;;;;;;13.50;5.70;;;5.60;88.80;;;;;;5072302;28;20056;-48
2021/10/16 05:39:01;;;;;;;16.05;6.63;;;5.50;88.70;;;;;;5072107;28;20116;-46
2021/10/16 05:41:28;;;;;;;13.77;6.25;;;5.40;89.30;;;;;;5072090;28;20066;-46
2021/10/16 05:43:53;;;;;;;16.40;7.22;;;5.50;89.80;;;;;;5072245;28;20021;-47
2021/10/16 05:46:19;;;;;;;13.85;6.88;;;5.60;89.70;;;;;;5074679;28;20070;-48
2021/10/16 05:48:45;;;;;;;15.32;7.13;;;5.70;89.80;;;;;;5075792;28;20052;-48
2021/10/16 05:51:11;;;;;;;24.02;6.22;;;5.90;89.50;;;;;;5075578;28;20098;-48
2021/10/16 05:53:37;;;;;;;10.07;5.43;;;5.90;89.10;;;;;;5075435;28;20017;-46
2021/10/16 05:56:02;;;;;;;17.50;5.53;;;6.10;88.90;;;;;;5075623;28;20495;-46
2021/10/16 05:58:28;;;;;;;17.85;6.07;;;6.10;88.60;;;;;;5075571;28;20031;-46
2021/10/16 06:00:53;;;;;;;13.10;6.32;;;6.00;88.60;;;;;;5075325;28;20476;-47
2021/10/16 06:03:19;;;;;;;17.30;6.50;;;5.80;89.10;;;;;;5057442;28;20036;-47
2021/10/16 06:05:45;;;;;;;18.58;6.75;;;6.10;89.10;;;;;;5075370;28;20094;-48
2021/10/16 06:08:10;;;;;;;14.27;6.85;;;6.10;88.80;;;;;;5075532;28;20074;-48
2021/10/16 06:10:36;;;;;;;12.93;6.18;;;6.30;88.50;;;;;;5075192;28;20033;-47
2021/10/16 06:13:02;;;;;;;17.13;5.95;;;6.10;88.10;;;;;;5076732;28;20048;-49
2021/10/16 06:15:28;;;;;;;20.88;7.82;;;6.30;88.00;;;;;;5076040;28;20033;-48
2021/10/16 06:17:53;;;;;;;12.68;5.95;;;6.30;87.80;;;;;;5075138;28;20025;-51
2021/10/16 06:20:19;;;;;;;20.38;7.05;;;6.30;88.00;;;;;;5075322;28;20380;-47
2021/10/16 06:22:45;;;;;;;18.05;7.45;;;6.30;88.20;;;;;;5074887;28;20089;-47
2021/10/16 06:25:11;;;;;;;25.88;6.95;;;6.30;88.20;;;;;;5075046;28;20024;-46
2021/10/16 06:27:36;;;;;;;16.25;7.55;;;6.40;88.30;;;;;;5074979;28;20039;-47
2021/10/16 06:30:04;;;;;;;16.95;6.75;;;6.40;88.30;;;;;;5074972;28;20388;-48
2021/10/16 06:32:30;;;;;;;20.05;6.72;;;6.60;87.80;;;;;;5074695;28;20564;-47
2021/10/16 06:34:55;;;;;;;19.25;7.78;;;6.50;87.50;;;;;;5074707;28;20051;-48
2021/10/16 06:37:21;;;;;;;28.45;10.00;;;6.30;87.70;;;;;;5074490;28;20024;-48
2021/10/16 06:39:47;;;;;;;17.75;7.75;;;6.30;88.60;;;;;;5075572;28;20103;-51
2021/10/16 06:42:13;;;;;;;23.67;8.68;;;6.30;88.50;;;;;;5074845;28;20025;-48
2021/10/16 06:44:39;;;;;;;14.73;7.38;;;6.70;88.60;;;;;;5074431;28;20086;-50
2021/10/16 06:47:05;;;;;;;18.17;7.38;;;6.80;87.40;;;;;;5074901;28;20025;-46
2021/10/16 06:49:30;;;;;;;17.95;7.30;;;6.80;87.60;;;;;;5074533;28;20064;-47
2021/10/16 06:51:57;;;;;;;19.88;6.82;;;7.00;87.90;;;;;;5074433;28;20444;-47
2021/10/16 06:54:23;;;;;;;24.00;8.82;;;7.10;87.20;;;;;;5074593;28;20024;-48
2021/10/16 06:56:48;;;;;;;14.18;7.70;;;7.10;87.20;;;;;;5073633;28;20117;-47
2021/10/16 06:59:14;;;;;;;15.25;7.55;;;7.20;87.50;;;;;;5056029;28;20029;-49
2021/10/16 07:01:40;;;;;;;18.75;8.32;;;7.30;86.60;;;;;;5055758;28;20097;-46
2021/10/16 07:04:06;;;;;;;13.45;6.45;;;7.40;86.60;;;;;;5073744;28;20069;-47
2021/10/16 07:06:47;;;;;;;23.25;6.50;;;7.30;86.10;;;;;;5077729;28;20087;-36
2021/10/16 07:09:13;;;;;;;14.20;7.00;;;7.20;86.60;;;;;;5062912;28;20029;-37
2021/10/16 07:11:38;;;;;;;18.92;7.30;;;7.20;87.50;;;;;;5074942;28;20047;-38
2021/10/16 07:14:04;;;;;;;16.20;6.65;;;7.20;87.30;;;;;;5073850;28;20032;-36
2021/10/16 07:16:30;;;;;;;17.02;6.40;;;7.10;87.30;;;;;;5074077;28;20024;-36
2021/10/16 07:18:55;;;;;;;18.50;8.02;;;7.00;88.30;;;;;;5073520;28;20020;-37
2021/10/16 07:21:21;;;;;;;25.17;8.45;;;7.10;88.60;;;;;;5055574;28;20115;-37
2021/10/16 07:23:47;;;;;;;24.00;7.63;;;7.30;87.30;;;;;;5055686;28;20483;-38
2021/10/16 07:26:14;;;;;;;26.27;7.65;;;7.40;86.50;;;;;;5056058;28;20518;-38
2021/10/16 07:28:40;;;;;;;23.15;8.27;;;7.50;86.20;;;;;;5073162;28;20062;-38
2021/10/16 07:31:06;;;;;;;21.52;6.65;;;7.50;85.80;;;;;;5073547;28;20028;-37
2021/10/16 07:33:32;;;;;;;14.50;7.32;;;7.30;86.40;;;;;;5073666;28;20021;-38
2021/10/16 07:35:57;;;;;;;23.23;8.15;;;7.30;87.00;;;;;;5074101;28;20024;-36
2021/10/16 07:38:23;;;;;;;18.23;8.02;;;7.30;87.80;;;;;;5074002;28;20035;-37
2021/10/16 07:40:48;;;;;;;17.15;7.32;;;7.30;86.80;;;;;;5073752;28;20432;-39
2021/10/16 07:43:14;;;;;;;20.77;8.07;;;7.20;87.70;;;;;;5073283;28;20354;-37
2021/10/16 07:45:40;;;;;;;16.55;7.43;;;7.40;88.20;;;;;;5073253;28;20080;-38
2021/10/16 07:48:05;;;;;;;19.23;9.23;;;7.80;86.70;;;;;;5073332;28;20025;-37
2021/10/16 07:50:31;;;;;;;29.65;8.68;;;7.80;85.80;;;;;;5073431;28;20491;-39
2021/10/16 07:52:57;;;;;;;20.50;8.15;;;7.70;85.70;;;;;;5073770;28;20476;-37
2021/10/16 07:55:22;;;;;;;21.40;9.43;;;7.60;85.30;;;;;;5073096;28;20032;-36
2021/10/16 07:57:48;;;;;;;22.42;8.57;;;7.40;86.90;;;;;;5072850;28;20115;-37
2021/10/16 08:00:15;;;;;;;20.50;7.18;;;7.80;86.60;;;;;;5073240;28;20465;-37
2021/10/16 08:02:41;;;;;;;24.27;7.70;;;8.10;85.40;;;;;;5054904;28;20427;-37
2021/10/16 08:05:07;;;;;;;25.73;9.13;;;8.30;84.60;;;;;;5054689;28;20040;-37
2021/10/16 08:07:32;;;;;;;23.55;8.07;;;8.40;84.00;;;;;;5072067;28;20032;-38
2021/10/16 08:09:58;;;;;;;21.08;9.63;;;8.50;83.80;;;;;;5073120;28;20479;-37
2021/10/16 08:12:24;;;;;;;20.55;8.10;;;8.60;83.40;;;;;;5073093;28;20058;-37
2021/10/16 08:14:50;;;;;;;14.93;8.43;;;8.80;82.90;;;;;;5073320;28;20055;-37
2021/10/16 08:17:16;;;;;;;19.90;8.63;;;8.80;83.00;;;;;;5073146;28;20068;-37
2021/10/16 08:19:42;;;;;;;22.77;8.88;;;9.00;82.50;;;;;;5073216;28;20020;-38
2021/10/16 08:22:09;;;;;;;27.35;8.77;;;9.10;82.90;;;;;;5073209;28;20028;-37
2021/10/16 08:24:35;;;;;;;27.02;10.57;;;9.10;82.60;;;;;;5072448;28;20020;-37
2021/10/16 08:27:00;;;;;;;23.25;10.18;;;9.20;82.40;;;;;;5072626;28;20459;-37
2021/10/16 08:29:26;;;;;;;21.15;9.13;;;9.10;82.70;;;;;;5072564;28;20035;-37
2021/10/16 08:31:52;;;;;;;22.88;9.60;;;8.80;83.30;;;;;;5072718;28;20460;-37
2021/10/16 08:34:18;;;;;;;23.15;9.75;;;8.60;84.70;;;;;;5072547;28;20029;-37
2021/10/16 08:36:43;;;;;;;27.77;10.93;;;8.90;84.80;;;;;;5072647;28;20093;-37
2021/10/16 08:39:09;;;;;;;38.72;12.38;;;9.20;83.50;;;;;;5072580;28;20059;-38
2021/10/16 08:41:35;;;;;;;23.48;10.68;;;9.30;83.10;;;;;;5072545;28;20016;-39
2021/10/16 08:44:01;;;;;;;17.75;9.32;;;9.40;82.30;;;;;;5072500;28;20021;-39
2021/10/16 08:46:29;;;;;;;23.95;11.48;;;9.50;82.20;;;;;;5073160;28;20021;-38
2021/10/16 08:49:01;;;;;;;30.75;13.63;;;9.10;83.10;;;;;;5072178;28;20024;-36
2021/10/16 08:51:27;;;;;;;28.25;11.18;;;9.20;83.90;;;;;;5072610;28;20024;-37
2021/10/16 08:53:52;;;;;;;22.55;11.60;;;9.10;83.90;;;;;;5055108;28;20025;-38
2021/10/16 08:56:22;;;;;;;19.77;9.57;;;9.10;84.10;;;;;;5072615;28;20056;-38
2021/10/16 08:58:49;;;;;;;26.85;10.30;;;9.40;84.10;;;;;;5072548;28;20051;-37
2021/10/16 09:01:15;;;;;;;28.02;10.75;;;9.70;82.90;;;;;;5072517;28;20021;-38
2021/10/16 09:03:46;;;;;;;24.50;10.27;;;9.40;83.60;;;;;;5072224;28;20081;-39
2021/10/16 09:06:14;;;;;;;27.23;10.52;;;9.50;83.30;;;;;;5071999;28;20075;-38
2021/10/16 09:08:42;;;;;;;27.92;11.43;;;9.60;83.70;;;;;;5072345;28;20024;-38
2021/10/16 09:11:15;;;;;;;15.73;9.00;;;10.10;82.90;;;;;;5072142;28;20495;-37
2021/10/16 09:13:51;;;;;;;23.65;10.43;;;10.30;81.70;;;;;;5071825;28;20106;-38
2021/10/16 09:16:23;;;;;;;20.52;9.27;;;10.20;81.70;;;;;;5071842;28;20469;-38
2021/10/16 09:18:50;;;;;;;18.00;9.00;;;10.60;79.90;;;;;;5072162;28;20028;-39
2021/10/16 09:21:16;;;;;;;21.58;10.15;;;10.70;79.10;;;;;;5075515;28;20028;-37
2021/10/16 09:23:42;;;;;;;23.55;8.63;;;10.40;79.60;;;;;;5075602;28;20021;-38
2021/10/16 09:26:09;;;;;;;20.95;8.70;;;9.90;82.00;;;;;;5075967;28;20028;-39
2021/10/16 09:28:36;;;;;;;18.67;8.90;;;10.30;80.50;;;;;;5075521;28;20025;-38
2021/10/16 09:31:12;;;;;;;19.98;9.05;;;10.10;81.70;;;;;;5075631;28;20115;-38
2021/10/16 09:33:47;;;;;;;25.40;9.27;;;10.20;82.60;;;;;;5075204;28;20375;-38
2021/10/16 09:36:23;;;;;;;26.45;8.85;;;10.80;80.50;;;;;;5075195;28;20028;-38
2021/10/16 09:38:50;;;;;;;27.02;9.57;;;10.40;81.10;;;;;;5075202;28;20037;-38
2021/10/16 09:41:29;;;;;;;27.58;8.75;;;10.80;80.50;;;;;;5075903;28;20021;-38
2021/10/16 09:43:56;;;;;;;30.60;10.02;;;11.30;78.80;;;;;;5076056;28;20040;-37
2021/10/16 09:46:22;;;;;;;23.40;10.68;;;11.30;79.10;;;;;;5075234;28;20029;-38
2021/10/16 09:48:48;;;;;;;26.27;10.95;;;11.30;79.00;;;;;;5075729;28;20034;-38
2021/10/16 09:51:15;;;;;;;30.17;10.75;;;10.80;80.00;;;;;;5057481;28;20040;-37
2021/10/16 09:53:45;;;;;;;25.00;11.50;;;11.10;79.30;;;;;;5075667;28;20530;-38
2021/10/16 09:56:12;;;;;;;25.02;10.38;;;11.30;78.80;;;;;;5074907;28;20029;-37
2021/10/16 09:58:38;;;;;;;22.38;9.80;;;11.50;78.40;;;;;;5075201;28;20357;-38
2021/10/16 10:01:04;;;;;;;25.33;10.25;;;11.80;77.50;;;;;;5075001;28;20039;-37
2021/10/16 10:03:32;;;;;;;23.00;8.23;;;12.10;75.70;;;;;;5058140;28;20035;-37
2021/10/16 10:05:58;;;;;;;27.60;9.00;;;12.00;75.80;;;;;;5057481;28;20060;-39
2021/10/16 10:08:24;;;;;;;27.33;10.85;;;12.20;75.90;;;;;;5057111;28;20550;-39
2021/10/16 10:10:51;;;;;;;22.75;9.05;;;12.30;75.00;;;;;;5057502;28;20028;-38
2021/10/16 10:13:17;;;;;;;23.65;9.48;;;11.90;76.20;;;;;;5075018;28;20039;-38
2021/10/16 10:15:44;;;;;;;20.55;7.78;;;11.40;78.10;;;;;;5075139;28;20025;-40
2021/10/16 10:20:59;;;;;;;22.88;8.13;;;11.40;77.20;;;;;;5074928;28;20027;-37
2021/10/16 10:23:27;;;;;;;19.02;7.63;;;11.80;76.70;;;;;;5074762;28;20465;-37
2021/10/16 10:26:22;;;;;;;18.42;6.95;;;11.60;77.30;;;;;;5074678;28;20067;-39
2021/10/16 10:28:53;;;;;;;25.27;9.02;;;11.80;76.50;;;;;;5074905;28;20487;-37
2021/10/16 10:31:50;;;;;;;20.35;7.40;;;12.10;75.70;;;;;;5056260;28;20476;-39
2021/10/16 10:34:26;;;;;;;18.77;7.38;;;12.10;75.20;;;;;;5074660;28;20036;-37
2021/10/16 10:37:01;;;;;;;15.05;6.10;;;12.40;73.60;;;;;;5074639;28;20468;-38
2021/10/16 10:39:33;;;;;;;25.38;7.85;;;12.70;71.60;;;;;;5074806;28;20046;-38
2021/10/16 10:42:14;;;;;;;20.88;8.43;;;13.00;70.80;;;;;;5074167;28;20073;-39
2021/10/16 10:44:59;;;;;;;17.20;8.18;;;13.00;71.00;;;;;;5073795;28;20078;-37
2021/10/16 10:47:34;;;;;;;18.75;7.72;;;13.00;71.00;;;;;;5074342;28;20027;-37
2021/10/16 10:50:09;;;;;;;25.40;9.45;;;12.80;71.90;;;;;;5074466;28;20116;-39
2021/10/16 10:53:12;;;;;;;19.10;7.07;;;12.80;72.30;;;;;;5074491;28;20024;-38
2021/10/16 10:55:52;;;;;;;18.40;6.63;;;12.90;71.50;;;;;;5074276;28;20070;-38
2021/10/16 10:58:19;;;;;;;24.50;7.13;;;13.10;69.40;;;;;;5073909;28;20036;-37
2021/10/16 11:00:44;;;;;;;34.75;9.73;;;13.30;69.10;;;;;;5073971;28;20070;-38
2021/10/16 11:03:28;;;;;;;24.85;7.05;;;13.30;68.70;;;;;;5074124;28;20032;-38
2021/10/16 11:06:09;;;;;;;22.25;7.18;;;13.50;67.60;;;;;;5073416;28;20057;-38
2021/10/16 11:08:36;;;;;;;27.08;6.80;;;13.40;67.80;;;;;;5073615;28;20021;-37
2021/10/16 11:11:02;;;;;;;24.67;7.60;;;12.80;69.20;;;;;;5073618;28;20025;-39
2021/10/16 11:13:31;;;;;;;16.98;7.40;;;13.80;66.30;;;;;;5055936;28;20082;-38
2021/10/16 11:16:01;;;;;;;23.85;9.02;;;14.30;63.90;;;;;;5039338;28;20496;-38
2021/10/16 11:18:27;;;;;;;20.10;7.45;;;15.50;62.30;;;;;;5073257;28;20031;-38
2021/10/16 11:21:00;;;;;;;22.08;7.72;;;16.10;59.00;;;;;;5073596;28;20031;-39
2021/10/16 11:23:26;;;;;;;17.42;4.38;;;16.80;56.50;;;;;;5073427;28;20056;-38
2021/10/16 11:26:04;;;;;;;11.00;3.38;;;16.20;53.30;;;;;;5073334;28;20051;-38
2021/10/16 11:28:31;;;;;;;23.02;5.22;;;15.40;54.60;;;;;;5073175;28;20032;-38
2021/10/16 11:30:59;;;;;;;25.95;5.93;;;14.80;58.10;;;;;;5073096;28;20020;-37
2021/10/16 11:33:27;;;;;;;13.38;5.35;;;14.60;58.60;;;;;;5074171;28;20065;-37
2021/10/16 11:35:57;;;;;;;20.60;4.05;;;14.10;59.20;;;;;;5073425;28;20028;-38
2021/10/16 11:38:25;;;;;;;18.55;4.60;;;13.90;60.10;;;;;;5072889;28;20029;-38
2021/10/16 11:40:52;;;;;;;18.42;4.00;;;13.80;60.60;;;;;;5073221;28;20021;-37
2021/10/16 11:43:21;;;;;;;16.05;4.18;;;14.30;58.10;;;;;;5072996;28;20029;-37
2021/10/16 11:45:49;;;;;;;13.93;4.30;;;14.30;57.90;;;;;;5074504;28;20383;-47
2021/10/16 11:48:18;;;;;;;17.23;4.75;;;14.20;58.40;;;;;;5072873;28;20025;-48
2021/10/16 11:50:53;;;;;;;9.82;4.15;;;13.80;58.50;;;;;;5054669;28;20056;-50
2021/10/16 11:53:19;;;;;;;9.82;2.55;;;13.30;60.10;;;;;;5072897;28;20082;-49
2021/10/16 11:55:49;;;;;;;12.30;2.90;;;13.20;59.20;;;;;;5072799;28;20059;-50
2021/10/16 11:58:18;;;;;;;12.13;2.53;;;13.10;58.00;;;;;;5073088;28;20032;-47
2021/10/16 12:00:49;;;;;;;7.45;2.35;;;13.30;55.70;;;;;;5072964;28;20108;-49
2021/10/16 12:03:21;;;;;;;17.48;4.43;;;13.30;56.40;;;;;;5039312;28;20020;-47
2021/10/16 12:05:53;;;;;;;14.45;3.47;;;13.10;58.00;;;;;;5072762;28;20090;-49
2021/10/16 12:08:28;;;;;;;14.65;4.03;;;13.40;57.80;;;;;;5072882;28;20031;-48
2021/10/16 12:11:03;;;;;;;14.10;3.70;;;13.70;57.20;;;;;;5072987;28;20033;-50
2021/10/16 12:13:34;;;;;;;12.23;4.07;;;13.70;57.60;;;;;;5072633;28;20108;-47
2021/10/16 12:16:12;;;;;;;17.23;5.15;;;13.20;58.80;;;;;;5054826;28;20029;-50
2021/10/16 12:18:52;;;;;;;12.70;3.63;;;13.30;57.20;;;;;;5072536;28;20107;-47
2021/10/16 12:21:32;;;;;;;11.17;3.57;;;13.30;56.80;;;;;;5072723;28;20027;-47
2021/10/16 12:24:02;;;;;;;16.15;4.05;;;13.50;55.30;;;;;;5072619;28;20646;-48
2021/10/16 12:26:37;;;;;;;18.60;4.60;;;13.50;57.00;;;;;;5072689;28;20013;-48
2021/10/16 12:29:38;;;;;;;15.45;4.22;;;13.30;58.00;;;;;;5072042;28;20033;-46
2021/10/16 12:32:08;;;;;;;8.13;3.17;;;12.90;58.70;;;;;;5066965;28;20028;-48
2021/10/16 12:34:36;;;;;;;12.20;3.35;;;13.10;57.80;;;;;;5072411;28;20024;-47
2021/10/16 12:37:07;;;;;;;17.05;3.90;;;13.10;57.20;;;;;;5072109;28;20434;-48
2021/10/16 12:39:41;;;;;;;9.55;3.58;;;13.20;55.10;;;;;;5072702;28;20017;-48
2021/10/16 12:42:23;;;;;;;12.70;3.72;;;13.30;53.80;;;;;;5072326;28;20036;-48
2021/10/16 12:45:05;;;;;;;13.50;4.40;;;13.40;52.00;;;;;;5071938;28;20102;-50
2021/10/16 12:47:31;;;;;;;9.43;3.40;;;13.30;52.30;;;;;;5072281;28;20380;-50
2021/10/16 12:50:03;;;;;;;13.57;4.28;;;13.00;53.60;;;;;;5072420;28;20104;-48